sensor_id;sensor_type;location;lat;lon;timestamp;P1;durP1;ratioP1;P2;durP2;ratioP2
37451;SDS011;23314;51.114;6.900;2023-04-15T00:00:52;8.67;;;4.87;;
37451;SDS011;23314;51.114;6.900;2023-04-15T00:03:18;6.47;;;4.57;;
37451;SDS011;23314;51.114;6.900;2023-04-15T00:05:44;6.40;;;4.30;;
37451;SDS011;23314;51.114;6.900;2023-04-15T00:08:09;8.07;;;4.80;;
37451;SDS011;23314;51.114;6.900;2023-04-15T00:10:34;7.40;;;4.67;;
37451;SDS011;23314;51.114;6.900;2023-04-15T00:12:59;9.70;;;5.27;;
37451;SDS011;23314;51.114;6.900;2023-04-15T00:15:26;9.83;;;4.70;;
37451;SDS011;23314;51.114;6.900;2023-04-15T00:17:51;9.53;;;4.90;;
37451;SDS011;23314;51.114;6.900;2023-04-15T00:20:16;10.47;;;5.37;;
37451;SDS011;23314;51.114;6.900;2023-04-15T00:22:42;8.37;;;5.10;;
37451;SDS011;23314;51.114;6.900;2023-04-15T00:25:07;11.30;;;4.80;;
37451;SDS011;23314;51.114;6.900;2023-04-15T00:27:33;10.07;;;5.27;;
37451;SDS011;23314;51.114;6.900;2023-04-15T00:29:58;9.73;;;5.30;;
37451;SDS011;23314;51.114;6.900;2023-04-15T00:32:24;8.70;;;5.47;;
37451;SDS011;23314;51.114;6.900;2023-04-15T00:34:49;8.33;;;5.50;;
37451;SDS011;23314;51.114;6.900;2023-04-15T00:37:15;8.80;;;5.50;;
37451;SDS011;23314;51.114;6.900;2023-04-15T00:39:40;10.23;;;5.57;;
37451;SDS011;23314;51.114;6.900;2023-04-15T00:42:06;7.77;;;4.73;;
37451;SDS011;23314;51.114;6.900;2023-04-15T00:44:31;9.37;;;5.43;;
37451;SDS011;23314;51.114;6.900;2023-04-15T00:46:57;7.83;;;5.20;;
37451;SDS011;23314;51.114;6.900;2023-04-15T00:49:24;10.17;;;5.40;;
37451;SDS011;23314;51.114;6.900;2023-04-15T00:51:49;9.57;;;5.87;;
37451;SDS011;23314;51.114;6.900;2023-04-15T00:54:15;10.37;;;4.90;;
37451;SDS011;23314;51.114;6.900;2023-04-15T00:56:40;9.47;;;4.80;;
37451;SDS011;23314;51.114;6.900;2023-04-15T00:59:06;7.57;;;5.00;;
37451;SDS011;23314;51.114;6.900;2023-04-15T01:01:33;10.70;;;5.40;;
37451;SDS011;23314;51.114;6.900;2023-04-15T01:03:59;10.23;;;5.27;;
37451;SDS011;23314;51.114;6.900;2023-04-15T01:06:25;7.73;;;5.37;;
37451;SDS011;23314;51.114;6.900;2023-04-15T01:08:51;9.90;;;5.30;;
37451;SDS011;23314;51.114;6.900;2023-04-15T01:11:18;7.43;;;5.40;;
37451;SDS011;23314;51.114;6.900;2023-04-15T01:13:43;7.90;;;5.40;;
37451;SDS011;23314;51.114;6.900;2023-04-15T01:16:09;7.70;;;5.50;;
37451;SDS011;23314;51.114;6.900;2023-04-15T01:18:35;9.60;;;5.77;;
37451;SDS011;23314;51.114;6.900;2023-04-15T01:21:03;9.27;;;5.83;;
37451;SDS011;23314;51.114;6.900;2023-04-15T01:23:30;10.70;;;5.70;;
37451;SDS011;23314;51.114;6.900;2023-04-15T01:25:55;7.40;;;5.17;;
37451;SDS011;23314;51.114;6.900;2023-04-15T01:28:22;7.50;;;5.40;;
37451;SDS011;23314;51.114;6.900;2023-04-15T01:30:47;11.03;;;5.83;;
37451;SDS011;23314;51.114;6.900;2023-04-15T01:33:13;13.43;;;5.80;;
37451;SDS011;23314;51.114;6.900;2023-04-15T01:35:38;11.17;;;6.00;;
37451;SDS011;23314;51.114;6.900;2023-04-15T01:38:04;12.03;;;6.30;;
37451;SDS011;23314;51.114;6.900;2023-04-15T01:40:31;10.40;;;6.03;;
37451;SDS011;23314;51.114;6.900;2023-04-15T01:42:57;11.47;;;5.50;;
37451;SDS011;23314;51.114;6.900;2023-04-15T01:45:23;8.50;;;5.83;;
37451;SDS011;23314;51.114;6.900;2023-04-15T01:47:49;8.70;;;5.70;;
37451;SDS011;23314;51.114;6.900;2023-04-15T01:50:14;10.33;;;5.37;;
37451;SDS011;23314;51.114;6.900;2023-04-15T01:52:40;9.77;;;6.10;;
37451;SDS011;23314;51.114;6.900;2023-04-15T01:55:07;8.97;;;6.57;;
37451;SDS011;23314;51.114;6.900;2023-04-15T01:57:33;8.60;;;6.17;;
37451;SDS011;23314;51.114;6.900;2023-04-15T01:59:58;8.37;;;6.17;;
37451;SDS011;23314;51.114;6.900;2023-04-15T02:02:24;8.37;;;5.63;;
37451;SDS011;23314;51.114;6.900;2023-04-15T02:04:49;8.63;;;6.37;;
37451;SDS011;23314;51.114;6.900;2023-04-15T02:07:15;11.37;;;6.20;;
37451;SDS011;23314;51.114;6.900;2023-04-15T02:09:40;10.57;;;5.90;;
37451;SDS011;23314;51.114;6.900;2023-04-15T02:12:05;8.43;;;6.00;;
37451;SDS011;23314;51.114;6.900;2023-04-15T02:14:31;8.63;;;6.30;;
37451;SDS011;23314;51.114;6.900;2023-04-15T02:16:56;10.17;;;5.87;;
37451;SDS011;23314;51.114;6.900;2023-04-15T02:19:22;7.07;;;5.60;;
37451;SDS011;23314;51.114;6.900;2023-04-15T02:21:47;9.97;;;5.70;;
37451;SDS011;23314;51.114;6.900;2023-04-15T02:24:12;9.20;;;6.10;;
37451;SDS011;23314;51.114;6.900;2023-04-15T02:26:38;8.50;;;5.90;;
37451;SDS011;23314;51.114;6.900;2023-04-15T02:29:03;10.97;;;5.63;;
37451;SDS011;23314;51.114;6.900;2023-04-15T02:31:28;11.27;;;6.60;;
37451;SDS011;23314;51.114;6.900;2023-04-15T02:33:54;12.07;;;6.83;;
37451;SDS011;23314;51.114;6.900;2023-04-15T02:36:19;10.20;;;6.57;;
37451;SDS011;23314;51.114;6.900;2023-04-15T02:38:45;9.40;;;6.47;;
37451;SDS011;23314;51.114;6.900;2023-04-15T02:41:10;11.87;;;6.80;;
37451;SDS011;23314;51.114;6.900;2023-04-15T02:43:36;6.80;;;6.10;;
37451;SDS011;23314;51.114;6.900;2023-04-15T02:46:02;8.03;;;6.30;;
37451;SDS011;23314;51.114;6.900;2023-04-15T02:48:28;10.67;;;6.73;;
37451;SDS011;23314;51.114;6.900;2023-04-15T02:50:53;11.57;;;6.70;;
37451;SDS011;23314;51.114;6.900;2023-04-15T02:53:35;13.33;;;6.90;;
37451;SDS011;23314;51.114;6.900;2023-04-15T02:56:00;9.50;;;6.67;;
37451;SDS011;23314;51.114;6.900;2023-04-15T02:58:25;10.50;;;6.90;;
37451;SDS011;23314;51.114;6.900;2023-04-15T03:00:51;10.37;;;6.90;;
37451;SDS011;23314;51.114;6.900;2023-04-15T03:03:16;7.10;;;6.20;;
37451;SDS011;23314;51.114;6.900;2023-04-15T03:05:42;7.43;;;6.70;;
37451;SDS011;23314;51.114;6.900;2023-04-15T03:08:08;11.90;;;6.60;;
37451;SDS011;23314;51.114;6.900;2023-04-15T03:10:33;13.07;;;7.10;;
37451;SDS011;23314;51.114;6.900;2023-04-15T03:12:59;13.07;;;7.10;;
37451;SDS011;23314;51.114;6.900;2023-04-15T03:15:25;8.87;;;6.67;;
37451;SDS011;23314;51.114;6.900;2023-04-15T03:17:51;13.10;;;7.10;;
37451;SDS011;23314;51.114;6.900;2023-04-15T03:20:16;8.93;;;6.43;;
37451;SDS011;23314;51.114;6.900;2023-04-15T03:22:42;7.63;;;6.23;;
37451;SDS011;23314;51.114;6.900;2023-04-15T03:25:07;8.57;;;6.27;;
37451;SDS011;23314;51.114;6.900;2023-04-15T03:27:33;7.87;;;5.93;;
37451;SDS011;23314;51.114;6.900;2023-04-15T03:29:59;12.80;;;7.10;;
37451;SDS011;23314;51.114;6.900;2023-04-15T03:32:24;10.60;;;6.47;;
37451;SDS011;23314;51.114;6.900;2023-04-15T03:34:49;9.50;;;6.77;;
37451;SDS011;23314;51.114;6.900;2023-04-15T03:37:15;9.70;;;6.73;;
37451;SDS011;23314;51.114;6.900;2023-04-15T03:39:40;11.67;;;6.80;;
37451;SDS011;23314;51.114;6.900;2023-04-15T03:42:05;8.27;;;6.40;;
37451;SDS011;23314;51.114;6.900;2023-04-15T03:44:31;9.93;;;6.13;;
37451;SDS011;23314;51.114;6.900;2023-04-15T03:46:56;12.30;;;7.10;;
37451;SDS011;23314;51.114;6.900;2023-04-15T03:49:22;13.70;;;7.43;;
37451;SDS011;23314;51.114;6.900;2023-04-15T03:51:48;9.50;;;6.27;;
37451;SDS011;23314;51.114;6.900;2023-04-15T03:54:13;11.30;;;7.37;;
37451;SDS011;23314;51.114;6.900;2023-04-15T03:56:39;11.03;;;7.13;;
37451;SDS011;23314;51.114;6.900;2023-04-15T03:59:05;12.27;;;6.80;;
37451;SDS011;23314;51.114;6.900;2023-04-15T04:01:30;9.53;;;6.80;;
37451;SDS011;23314;51.114;6.900;2023-04-15T04:03:56;13.07;;;7.00;;
37451;SDS011;23314;51.114;6.900;2023-04-15T04:06:21;11.33;;;6.90;;
37451;SDS011;23314;51.114;6.900;2023-04-15T04:08:46;10.37;;;6.70;;
37451;SDS011;23314;51.114;6.900;2023-04-15T04:11:12;9.43;;;7.13;;
37451;SDS011;23314;51.114;6.900;2023-04-15T04:13:37;9.10;;;7.10;;
37451;SDS011;23314;51.114;6.900;2023-04-15T04:16:03;10.93;;;7.27;;
37451;SDS011;23314;51.114;6.900;2023-04-15T04:18:29;11.97;;;7.27;;
37451;SDS011;23314;51.114;6.900;2023-04-15T04:20:55;8.40;;;7.13;;
37451;SDS011;23314;51.114;6.900;2023-04-15T04:23:21;11.43;;;7.20;;
37451;SDS011;23314;51.114;6.900;2023-04-15T04:25:46;9.30;;;7.00;;
37451;SDS011;23314;51.114;6.900;2023-04-15T04:28:11;11.13;;;6.93;;
37451;SDS011;23314;51.114;6.900;2023-04-15T04:30:37;9.90;;;7.47;;
37451;SDS011;23314;51.114;6.900;2023-04-15T04:33:02;13.30;;;8.00;;
37451;SDS011;23314;51.114;6.900;2023-04-15T04:35:27;11.73;;;8.23;;
37451;SDS011;23314;51.114;6.900;2023-04-15T04:37:53;13.83;;;8.50;;
37451;SDS011;23314;51.114;6.900;2023-04-15T04:40:18;12.87;;;8.30;;
37451;SDS011;23314;51.114;6.900;2023-04-15T04:42:43;8.90;;;7.23;;
37451;SDS011;23314;51.114;6.900;2023-04-15T04:45:09;12.67;;;7.73;;
37451;SDS011;23314;51.114;6.900;2023-04-15T04:47:34;15.03;;;8.73;;
37451;SDS011;23314;51.114;6.900;2023-04-15T04:50:00;14.60;;;8.80;;
37451;SDS011;23314;51.114;6.900;2023-04-15T04:52:25;13.03;;;7.77;;
37451;SDS011;23314;51.114;6.900;2023-04-15T04:54:50;11.77;;;7.80;;
37451;SDS011;23314;51.114;6.900;2023-04-15T04:57:16;19.43;;;8.63;;
37451;SDS011;23314;51.114;6.900;2023-04-15T04:59:41;14.80;;;8.60;;
37451;SDS011;23314;51.114;6.900;2023-04-15T05:02:06;10.10;;;7.57;;
37451;SDS011;23314;51.114;6.900;2023-04-15T05:04:32;15.20;;;8.40;;
37451;SDS011;23314;51.114;6.900;2023-04-15T05:06:57;10.17;;;7.80;;
37451;SDS011;23314;51.114;6.900;2023-04-15T05:09:23;12.93;;;7.73;;
37451;SDS011;23314;51.114;6.900;2023-04-15T05:11:48;13.73;;;7.87;;
37451;SDS011;23314;51.114;6.900;2023-04-15T05:14:14;15.13;;;8.83;;
37451;SDS011;23314;51.114;6.900;2023-04-15T05:16:39;13.37;;;7.63;;
37451;SDS011;23314;51.114;6.900;2023-04-15T05:19:05;12.20;;;7.67;;
37451;SDS011;23314;51.114;6.900;2023-04-15T05:21:30;13.90;;;8.10;;
37451;SDS011;23314;51.114;6.900;2023-04-15T05:23:55;13.90;;;7.80;;
37451;SDS011;23314;51.114;6.900;2023-04-15T05:26:21;11.93;;;8.60;;
37451;SDS011;23314;51.114;6.900;2023-04-15T05:28:46;11.90;;;7.57;;
37451;SDS011;23314;51.114;6.900;2023-04-15T05:31:12;11.97;;;7.93;;
37451;SDS011;23314;51.114;6.900;2023-04-15T05:33:37;11.37;;;8.00;;
37451;SDS011;23314;51.114;6.900;2023-04-15T05:36:03;10.63;;;8.40;;
37451;SDS011;23314;51.114;6.900;2023-04-15T05:38:28;12.87;;;8.63;;
37451;SDS011;23314;51.114;6.900;2023-04-15T05:40:53;11.97;;;8.60;;
37451;SDS011;23314;51.114;6.900;2023-04-15T05:43:19;11.23;;;8.00;;
37451;SDS011;23314;51.114;6.900;2023-04-15T05:45:44;14.40;;;8.10;;
37451;SDS011;23314;51.114;6.900;2023-04-15T05:48:10;14.53;;;8.33;;
37451;SDS011;23314;51.114;6.900;2023-04-15T05:50:35;11.67;;;8.10;;
37451;SDS011;23314;51.114;6.900;2023-04-15T05:53:00;11.37;;;7.50;;
37451;SDS011;23314;51.114;6.900;2023-04-15T05:55:26;12.17;;;7.87;;
37451;SDS011;23314;51.114;6.900;2023-04-15T05:57:51;12.00;;;7.57;;
37451;SDS011;23314;51.114;6.900;2023-04-15T06:00:16;13.67;;;7.73;;
37451;SDS011;23314;51.114;6.900;2023-04-15T06:02:42;10.37;;;7.60;;
37451;SDS011;23314;51.114;6.900;2023-04-15T06:05:08;12.67;;;7.63;;
37451;SDS011;23314;51.114;6.900;2023-04-15T06:07:35;10.90;;;7.30;;
37451;SDS011;23314;51.114;6.900;2023-04-15T06:10:01;11.13;;;7.20;;
37451;SDS011;23314;51.114;6.900;2023-04-15T06:12:27;11.80;;;7.40;;
37451;SDS011;23314;51.114;6.900;2023-04-15T06:14:53;12.13;;;7.80;;
37451;SDS011;23314;51.114;6.900;2023-04-15T06:17:18;12.73;;;7.83;;
37451;SDS011;23314;51.114;6.900;2023-04-15T06:19:43;13.53;;;8.50;;
37451;SDS011;23314;51.114;6.900;2023-04-15T06:22:09;12.10;;;7.83;;
37451;SDS011;23314;51.114;6.900;2023-04-15T06:24:34;11.57;;;7.97;;
37451;SDS011;23314;51.114;6.900;2023-04-15T06:27:01;9.67;;;8.10;;
37451;SDS011;23314;51.114;6.900;2023-04-15T06:29:27;16.30;;;9.23;;
37451;SDS011;23314;51.114;6.900;2023-04-15T06:31:53;11.53;;;8.50;;
37451;SDS011;23314;51.114;6.900;2023-04-15T06:34:20;13.73;;;8.43;;
37451;SDS011;23314;51.114;6.900;2023-04-15T06:36:45;11.27;;;8.33;;
37451;SDS011;23314;51.114;6.900;2023-04-15T06:39:10;9.47;;;8.23;;
37451;SDS011;23314;51.114;6.900;2023-04-15T06:41:36;10.57;;;8.60;;
37451;SDS011;23314;51.114;6.900;2023-04-15T06:44:01;12.00;;;8.73;;
37451;SDS011;23314;51.114;6.900;2023-04-15T06:46:27;12.90;;;9.53;;
37451;SDS011;23314;51.114;6.900;2023-04-15T06:48:52;13.63;;;8.67;;
37451;SDS011;23314;51.114;6.900;2023-04-15T06:51:17;15.37;;;9.53;;
37451;SDS011;23314;51.114;6.900;2023-04-15T06:53:43;12.10;;;8.47;;
37451;SDS011;23314;51.114;6.900;2023-04-15T06:56:08;12.87;;;9.43;;
37451;SDS011;23314;51.114;6.900;2023-04-15T06:58:34;12.97;;;9.00;;
37451;SDS011;23314;51.114;6.900;2023-04-15T07:01:00;11.27;;;9.63;;
37451;SDS011;23314;51.114;6.900;2023-04-15T07:03:25;12.10;;;9.17;;
37451;SDS011;23314;51.114;6.900;2023-04-15T07:05:52;9.70;;;8.70;;
37451;SDS011;23314;51.114;6.900;2023-04-15T07:08:18;9.33;;;8.23;;
37451;SDS011;23314;51.114;6.900;2023-04-15T07:10:43;8.20;;;6.80;;
37451;SDS011;23314;51.114;6.900;2023-04-15T07:13:10;7.33;;;6.43;;
37451;SDS011;23314;51.114;6.900;2023-04-15T07:15:35;6.63;;;6.00;;
37451;SDS011;23314;51.114;6.900;2023-04-15T07:18:01;5.70;;;5.10;;
37451;SDS011;23314;51.114;6.900;2023-04-15T07:20:26;9.10;;;5.97;;
37451;SDS011;23314;51.114;6.900;2023-04-15T07:22:51;7.33;;;5.93;;
37451;SDS011;23314;51.114;6.900;2023-04-15T07:25:17;6.67;;;5.80;;
37451;SDS011;23314;51.114;6.900;2023-04-15T07:27:43;6.50;;;5.90;;
37451;SDS011;23314;51.114;6.900;2023-04-15T07:30:08;8.60;;;5.27;;
37451;SDS011;23314;51.114;6.900;2023-04-15T07:32:34;6.03;;;5.43;;
37451;SDS011;23314;51.114;6.900;2023-04-15T07:35:00;10.00;;;5.20;;
37451;SDS011;23314;51.114;6.900;2023-04-15T07:37:27;5.27;;;4.77;;
37451;SDS011;23314;51.114;6.900;2023-04-15T07:39:53;5.73;;;5.07;;
37451;SDS011;23314;51.114;6.900;2023-04-15T07:42:19;7.77;;;5.10;;
37451;SDS011;23314;51.114;6.900;2023-04-15T07:44:44;6.33;;;5.30;;
37451;SDS011;23314;51.114;6.900;2023-04-15T07:47:10;5.90;;;5.23;;
37451;SDS011;23314;51.114;6.900;2023-04-15T07:49:35;7.07;;;5.63;;
37451;SDS011;23314;51.114;6.900;2023-04-15T07:52:01;8.27;;;5.70;;
37451;SDS011;23314;51.114;6.900;2023-04-15T07:54:26;5.63;;;5.20;;
37451;SDS011;23314;51.114;6.900;2023-04-15T07:56:52;6.33;;;5.70;;
37451;SDS011;23314;51.114;6.900;2023-04-15T07:59:17;8.03;;;6.23;;
37451;SDS011;23314;51.114;6.900;2023-04-15T08:01:43;6.53;;;4.73;;
37451;SDS011;23314;51.114;6.900;2023-04-15T08:04:09;4.50;;;4.10;;
37451;SDS011;23314;51.114;6.900;2023-04-15T08:06:34;4.70;;;4.20;;
37451;SDS011;23314;51.114;6.900;2023-04-15T08:09:00;3.60;;;3.30;;
37451;SDS011;23314;51.114;6.900;2023-04-15T08:11:25;4.40;;;4.03;;
37451;SDS011;23314;51.114;6.900;2023-04-15T08:13:51;3.30;;;3.10;;
37451;SDS011;23314;51.114;6.900;2023-04-15T08:16:18;3.40;;;3.20;;
37451;SDS011;23314;51.114;6.900;2023-04-15T08:18:52;3.37;;;3.10;;
37451;SDS011;23314;51.114;6.900;2023-04-15T08:21:19;3.70;;;3.37;;
37451;SDS011;23314;51.114;6.900;2023-04-15T08:23:45;3.40;;;3.10;;
37451;SDS011;23314;51.114;6.900;2023-04-15T08:26:12;2.87;;;2.67;;
37451;SDS011;23314;51.114;6.900;2023-04-15T08:28:38;2.93;;;2.73;;
37451;SDS011;23314;51.114;6.900;2023-04-15T08:31:05;2.43;;;2.27;;
37451;SDS011;23314;51.114;6.900;2023-04-15T08:33:31;2.57;;;2.37;;
37451;SDS011;23314;51.114;6.900;2023-04-15T08:35:56;3.13;;;2.17;;
37451;SDS011;23314;51.114;6.900;2023-04-15T08:38:22;4.00;;;2.40;;
37451;SDS011;23314;51.114;6.900;2023-04-15T08:40:47;2.90;;;2.70;;
37451;SDS011;23314;51.114;6.900;2023-04-15T08:43:20;2.93;;;2.67;;
37451;SDS011;23314;51.114;6.900;2023-04-15T08:45:52;4.00;;;3.20;;
37451;SDS011;23314;51.114;6.900;2023-04-15T08:48:19;3.93;;;3.63;;
37451;SDS011;23314;51.114;6.900;2023-04-15T08:50:46;4.00;;;3.70;;
37451;SDS011;23314;51.114;6.900;2023-04-15T08:53:12;6.67;;;3.90;;
37451;SDS011;23314;51.114;6.900;2023-04-15T08:55:42;4.70;;;3.70;;
37451;SDS011;23314;51.114;6.900;2023-04-15T08:58:10;3.93;;;3.63;;
37451;SDS011;23314;51.114;6.900;2023-04-15T09:00:36;3.90;;;3.53;;
37451;SDS011;23314;51.114;6.900;2023-04-15T09:03:05;4.53;;;3.83;;
37451;SDS011;23314;51.114;6.900;2023-04-15T09:05:32;5.30;;;4.53;;
37451;SDS011;23314;51.114;6.900;2023-04-15T09:07:58;5.00;;;4.50;;
37451;SDS011;23314;51.114;6.900;2023-04-15T09:10:24;5.00;;;4.50;;
37451;SDS011;23314;51.114;6.900;2023-04-15T09:12:49;5.27;;;4.80;;
37451;SDS011;23314;51.114;6.900;2023-04-15T09:15:14;5.07;;;4.43;;
37451;SDS011;23314;51.114;6.900;2023-04-15T09:17:44;6.90;;;3.93;;
37451;SDS011;23314;51.114;6.900;2023-04-15T09:20:10;4.10;;;3.80;;
37451;SDS011;23314;51.114;6.900;2023-04-15T09:22:40;5.03;;;4.50;;
37451;SDS011;23314;51.114;6.900;2023-04-15T09:25:24;4.73;;;4.20;;
37451;SDS011;23314;51.114;6.900;2023-04-15T09:27:51;4.00;;;3.70;;
37451;SDS011;23314;51.114;6.900;2023-04-15T09:30:20;4.23;;;3.93;;
37451;SDS011;23314;51.114;6.900;2023-04-15T09:32:47;5.07;;;4.67;;
37451;SDS011;23314;51.114;6.900;2023-04-15T09:35:21;5.30;;;4.53;;
37451;SDS011;23314;51.114;6.900;2023-04-15T09:37:48;6.70;;;4.70;;
37451;SDS011;23314;51.114;6.900;2023-04-15T09:40:35;5.77;;;4.93;;
37451;SDS011;23314;51.114;6.900;2023-04-15T09:43:02;4.83;;;4.43;;
37451;SDS011;23314;51.114;6.900;2023-04-15T09:45:29;4.93;;;4.43;;
37451;SDS011;23314;51.114;6.900;2023-04-15T09:47:59;4.83;;;4.43;;
37451;SDS011;23314;51.114;6.900;2023-04-15T09:50:39;4.70;;;4.20;;
37451;SDS011;23314;51.114;6.900;2023-04-15T09:53:05;5.17;;;4.67;;
37451;SDS011;23314;51.114;6.900;2023-04-15T09:55:34;4.97;;;4.50;;
37451;SDS011;23314;51.114;6.900;2023-04-15T09:57:59;5.23;;;4.83;;
37451;SDS011;23314;51.114;6.900;2023-04-15T10:00:24;4.90;;;4.50;;
37451;SDS011;23314;51.114;6.900;2023-04-15T10:02:50;4.77;;;4.47;;
37451;SDS011;23314;51.114;6.900;2023-04-15T10:05:15;4.40;;;4.10;;
37451;SDS011;23314;51.114;6.900;2023-04-15T10:07:42;4.33;;;3.93;;
37451;SDS011;23314;51.114;6.900;2023-04-15T10:10:07;3.60;;;3.40;;
37451;SDS011;23314;51.114;6.900;2023-04-15T10:12:33;4.00;;;3.70;;
37451;SDS011;23314;51.114;6.900;2023-04-15T10:15:02;4.33;;;3.93;;
37451;SDS011;23314;51.114;6.900;2023-04-15T10:17:29;5.50;;;3.90;;
37451;SDS011;23314;51.114;6.900;2023-04-15T10:20:02;3.73;;;3.43;;
37451;SDS011;23314;51.114;6.900;2023-04-15T10:22:29;4.50;;;4.10;;
37451;SDS011;23314;51.114;6.900;2023-04-15T10:24:55;4.50;;;4.20;;
37451;SDS011;23314;51.114;6.900;2023-04-15T10:27:21;4.47;;;4.10;;
37451;SDS011;23314;51.114;6.900;2023-04-15T10:29:48;5.00;;;4.50;;
37451;SDS011;23314;51.114;6.900;2023-04-15T10:32:14;4.23;;;3.93;;
37451;SDS011;23314;51.114;6.900;2023-04-15T10:34:42;6.13;;;4.17;;
37451;SDS011;23314;51.114;6.900;2023-04-15T10:37:08;3.77;;;3.57;;
37451;SDS011;23314;51.114;6.900;2023-04-15T10:42:05;3.47;;;3.27;;
37451;SDS011;23314;51.114;6.900;2023-04-15T10:44:31;3.30;;;3.10;;
37451;SDS011;23314;51.114;6.900;2023-04-15T10:46:56;3.30;;;3.10;;
37451;SDS011;23314;51.114;6.900;2023-04-15T10:49:25;3.50;;;3.20;;
37451;SDS011;23314;51.114;6.900;2023-04-15T10:51:51;3.47;;;3.17;;
37451;SDS011;23314;51.114;6.900;2023-04-15T10:59:28;4.73;;;4.10;;
37451;SDS011;23314;51.114;6.900;2023-04-15T11:01:55;3.90;;;3.70;;
37451;SDS011;23314;51.114;6.900;2023-04-15T11:12:45;2.80;;;2.50;;
37451;SDS011;23314;51.114;6.900;2023-04-15T11:15:31;3.33;;;2.60;;
37451;SDS011;23314;51.114;6.900;2023-04-15T11:18:07;2.77;;;2.67;;
37451;SDS011;23314;51.114;6.900;2023-04-15T11:20:45;2.50;;;2.40;;
37451;SDS011;23314;51.114;6.900;2023-04-15T11:23:13;3.07;;;2.87;;
37451;SDS011;23314;51.114;6.900;2023-04-15T11:25:39;4.40;;;4.10;;
37451;SDS011;23314;51.114;6.900;2023-04-15T11:28:04;4.80;;;4.33;;
37451;SDS011;23314;51.114;6.900;2023-04-15T11:30:31;6.17;;;4.50;;
37451;SDS011;23314;51.114;6.900;2023-04-15T11:32:59;5.87;;;5.47;;
37451;SDS011;23314;51.114;6.900;2023-04-15T11:35:26;4.83;;;4.43;;
37451;SDS011;23314;51.114;6.900;2023-04-15T11:37:52;4.67;;;4.37;;
37451;SDS011;23314;51.114;6.900;2023-04-15T11:40:22;5.20;;;4.83;;
37451;SDS011;23314;51.114;6.900;2023-04-15T11:43:09;5.30;;;4.93;;
37451;SDS011;23314;51.114;6.900;2023-04-15T11:45:57;5.77;;;5.37;;
37451;SDS011;23314;51.114;6.900;2023-04-15T11:48:28;5.47;;;5.00;;
37451;SDS011;23314;51.114;6.900;2023-04-15T11:50:57;4.90;;;4.60;;
37451;SDS011;23314;51.114;6.900;2023-04-15T11:56:03;4.97;;;4.50;;
37451;SDS011;23314;51.114;6.900;2023-04-15T11:58:29;4.57;;;4.20;;
37451;SDS011;23314;51.114;6.900;2023-04-15T12:00:56;4.70;;;4.40;;
37451;SDS011;23314;51.114;6.900;2023-04-15T12:03:29;4.10;;;3.77;;
37451;SDS011;23314;51.114;6.900;2023-04-15T12:11:29;4.00;;;3.70;;
37451;SDS011;23314;51.114;6.900;2023-04-15T12:14:04;3.53;;;3.37;;
37451;SDS011;23314;51.114;6.900;2023-04-15T12:16:35;3.50;;;3.20;;
37451;SDS011;23314;51.114;6.900;2023-04-15T12:19:06;3.70;;;3.50;;
37451;SDS011;23314;51.114;6.900;2023-04-15T12:21:35;4.20;;;3.80;;
37451;SDS011;23314;51.114;6.900;2023-04-15T12:24:02;4.60;;;4.10;;
37451;SDS011;23314;51.114;6.900;2023-04-15T12:26:42;4.47;;;4.17;;
37451;SDS011;23314;51.114;6.900;2023-04-15T12:29:16;4.30;;;3.90;;
37451;SDS011;23314;51.114;6.900;2023-04-15T12:31:48;3.70;;;3.50;;
37451;SDS011;23314;51.114;6.900;2023-04-15T12:34:24;4.20;;;3.90;;
37451;SDS011;23314;51.114;6.900;2023-04-15T12:36:52;4.10;;;3.80;;
37451;SDS011;23314;51.114;6.900;2023-04-15T12:39:22;3.90;;;3.60;;
37451;SDS011;23314;51.114;6.900;2023-04-15T12:41:48;3.77;;;3.53;;
37451;SDS011;23314;51.114;6.900;2023-04-15T12:44:13;4.10;;;3.80;;
37451;SDS011;23314;51.114;6.900;2023-04-15T12:46:38;3.83;;;3.50;;
37451;SDS011;23314;51.114;6.900;2023-04-15T12:49:04;3.70;;;3.40;;
37451;SDS011;23314;51.114;6.900;2023-04-15T12:51:29;3.83;;;3.57;;
37451;SDS011;23314;51.114;6.900;2023-04-15T12:53:56;3.70;;;3.03;;
37451;SDS011;23314;51.114;6.900;2023-04-15T12:56:21;3.43;;;3.20;;
37451;SDS011;23314;51.114;6.900;2023-04-15T12:58:47;3.77;;;3.57;;
37451;SDS011;23314;51.114;6.900;2023-04-15T13:01:13;3.70;;;3.50;;
37451;SDS011;23314;51.114;6.900;2023-04-15T13:03:38;4.40;;;4.07;;
37451;SDS011;23314;51.114;6.900;2023-04-15T13:06:04;5.03;;;4.53;;
37451;SDS011;23314;51.114;6.900;2023-04-15T13:08:30;4.23;;;3.93;;
37451;SDS011;23314;51.114;6.900;2023-04-15T13:10:56;5.33;;;4.33;;
37451;SDS011;23314;51.114;6.900;2023-04-15T13:13:21;5.30;;;4.10;;
37451;SDS011;23314;51.114;6.900;2023-04-15T13:15:46;4.50;;;4.10;;
37451;SDS011;23314;51.114;6.900;2023-04-15T13:18:12;4.43;;;4.03;;
37451;SDS011;23314;51.114;6.900;2023-04-15T13:20:38;3.90;;;3.60;;
37451;SDS011;23314;51.114;6.900;2023-04-15T13:23:03;3.97;;;3.67;;
37451;SDS011;23314;51.114;6.900;2023-04-15T13:25:29;4.33;;;3.93;;
37451;SDS011;23314;51.114;6.900;2023-04-15T13:27:54;4.20;;;3.90;;
37451;SDS011;23314;51.114;6.900;2023-04-15T13:30:19;4.10;;;3.80;;
37451;SDS011;23314;51.114;6.900;2023-04-15T13:32:45;3.60;;;3.30;;
37451;SDS011;23314;51.114;6.900;2023-04-15T13:35:10;3.73;;;3.43;;
37451;SDS011;23314;51.114;6.900;2023-04-15T13:37:35;3.77;;;3.47;;
37451;SDS011;23314;51.114;6.900;2023-04-15T13:40:01;3.80;;;3.50;;
37451;SDS011;23314;51.114;6.900;2023-04-15T13:42:26;3.30;;;3.00;;
37451;SDS011;23314;51.114;6.900;2023-04-15T13:44:52;3.37;;;3.17;;
37451;SDS011;23314;51.114;6.900;2023-04-15T13:47:20;3.27;;;3.07;;
37451;SDS011;23314;51.114;6.900;2023-04-15T13:49:46;3.40;;;3.10;;
37451;SDS011;23314;51.114;6.900;2023-04-15T13:52:11;3.20;;;3.00;;
37451;SDS011;23314;51.114;6.900;2023-04-15T13:54:37;2.83;;;2.33;;
37451;SDS011;23314;51.114;6.900;2023-04-15T13:57:02;3.27;;;3.00;;
37451;SDS011;23314;51.114;6.900;2023-04-15T13:59:29;2.93;;;2.73;;
37451;SDS011;23314;51.114;6.900;2023-04-15T14:01:54;3.37;;;2.80;;
37451;SDS011;23314;51.114;6.900;2023-04-15T14:04:20;5.37;;;3.27;;
37451;SDS011;23314;51.114;6.900;2023-04-15T14:06:45;3.03;;;2.83;;
37451;SDS011;23314;51.114;6.900;2023-04-15T14:09:10;3.23;;;3.03;;
37451;SDS011;23314;51.114;6.900;2023-04-15T14:11:39;4.00;;;3.70;;
37451;SDS011;23314;51.114;6.900;2023-04-15T14:14:04;4.13;;;3.77;;
37451;SDS011;23314;51.114;6.900;2023-04-15T14:16:33;4.03;;;3.63;;
37451;SDS011;23314;51.114;6.900;2023-04-15T14:18:58;5.13;;;3.90;;
37451;SDS011;23314;51.114;6.900;2023-04-15T14:21:24;4.63;;;4.20;;
37451;SDS011;23314;51.114;6.900;2023-04-15T14:23:51;5.87;;;5.37;;
37451;SDS011;23314;51.114;6.900;2023-04-15T14:26:17;4.10;;;3.80;;
37451;SDS011;23314;51.114;6.900;2023-04-15T14:28:42;4.43;;;4.03;;
37451;SDS011;23314;51.114;6.900;2023-04-15T14:31:09;4.57;;;4.17;;
37451;SDS011;23314;51.114;6.900;2023-04-15T14:33:34;6.00;;;5.23;;
37451;SDS011;23314;51.114;6.900;2023-04-15T14:35:59;8.23;;;7.43;;
37451;SDS011;23314;51.114;6.900;2023-04-15T14:38:25;8.13;;;7.43;;
37451;SDS011;23314;51.114;6.900;2023-04-15T14:40:50;8.80;;;8.00;;
37451;SDS011;23314;51.114;6.900;2023-04-15T14:43:16;8.53;;;7.60;;
37451;SDS011;23314;51.114;6.900;2023-04-15T14:45:41;9.50;;;8.60;;
37451;SDS011;23314;51.114;6.900;2023-04-15T14:48:08;7.00;;;6.37;;
37451;SDS011;23314;51.114;6.900;2023-04-15T14:50:34;7.70;;;7.00;;
37451;SDS011;23314;51.114;6.900;2023-04-15T14:53:00;7.93;;;7.23;;
37451;SDS011;23314;51.114;6.900;2023-04-15T14:55:25;9.10;;;8.23;;
37451;SDS011;23314;51.114;6.900;2023-04-15T14:57:50;7.93;;;6.80;;
37451;SDS011;23314;51.114;6.900;2023-04-15T15:00:16;6.73;;;6.20;;
37451;SDS011;23314;51.114;6.900;2023-04-15T15:02:41;6.73;;;5.53;;